Time;durP1;ratioP1;P1;durP2;ratioP2;P2;SDS_P1;SDS_P2;PMS_P1;PMS_P2;Temp;Humidity;BMP_temperature;BMP_pressure;BME280_temperature;BME280_humidity;BME280_pressure;Samples;Min_cycle;Max_cycle;Signal;HPM_P1;HPM_P2
2022/12/31 00:02:11;;;;;;;34.15;22.82;;;;;;;2.59;80.46;101255.86;1742142;82;21205;-53
2022/12/31 00:05:17;;;;;;;38.53;23.98;;;;;;;2.57;80.44;101261.01;1742093;82;21196;-53
2022/12/31 00:08:24;;;;;;;38.85;23.67;;;;;;;2.59;80.47;101265.33;1742171;82;21460;-52
2022/12/31 00:11:31;;;;;;;35.65;22.70;;;;;;;2.64;80.56;101273.99;1742081;82;21228;-52
2022/12/31 00:14:36;;;;;;;36.35;23.42;;;;;;;2.70;80.57;101276.75;1742144;82;21193;-52
2022/12/31 00:17:41;;;;;;;36.83;23.62;;;;;;;2.76;80.57;101281.73;1742066;82;21284;-52
2022/12/31 00:20:48;;;;;;;37.70;23.62;;;;;;;2.84;80.56;101289.71;1742134;82;21208;-52
2022/12/31 00:23:53;;;;;;;38.65;24.92;;;;;;;2.91;80.56;101285.63;1742124;82;21252;-52
2022/12/31 00:26:58;;;;;;;35.83;23.15;;;;;;;2.99;80.53;101290.50;1742136;82;21212;-52
2022/12/31 00:30:05;;;;;;;36.98;22.90;;;;;;;3.06;80.53;101285.03;1742129;82;21204;-53
2022/12/31 00:33:11;;;;;;;35.03;23.47;;;;;;;3.12;80.52;101279.70;1742285;82;21236;-51
2022/12/31 00:36:24;;;;;;;35.33;22.17;;;;;;;3.18;80.45;101267.09;1742113;82;21228;-52
2022/12/31 00:39:28;;;;;;;32.60;22.30;;;;;;;3.21;80.43;101270.93;1727353;82;21204;-52
2022/12/31 00:42:36;;;;;;;37.95;23.67;;;;;;;3.23;80.42;101276.63;1742285;82;21276;-52
2022/12/31 00:45:43;;;;;;;34.67;22.10;;;;;;;3.27;80.40;101259.20;1742233;82;21193;-53
2022/12/31 00:48:50;;;;;;;35.40;22.90;;;;;;;3.32;80.43;101286.80;1742059;82;21236;-53
2022/12/31 00:51:55;;;;;;;36.80;23.57;;;;;;;3.35;80.42;101287.05;1742125;82;21248;-52
2022/12/31 00:55:01;;;;;;;37.20;24.27;;;;;;;3.37;80.37;101300.88;1742061;82;21276;-52
2022/12/31 00:58:08;;;;;;;39.23;23.90;;;;;;;3.33;80.25;101297.14;1742026;82;21224;-52
2022/12/31 01:01:33;;;;;;;37.28;23.42;;;;;;;3.29;80.23;101290.20;1744299;81;21346;-53
2022/12/31 01:04:39;;;;;;;38.25;23.35;;;;;;;3.31;80.31;101286.91;1744468;82;21255;-53
2022/12/31 01:07:47;;;;;;;36.85;23.67;;;;;;;3.33;80.31;101292.58;1744433;82;21242;-53
2022/12/31 01:14:24;;;;;;;36.50;23.15;;;;;;;3.39;80.39;101300.29;1744444;82;21224;-52
2022/12/31 01:17:29;;;;;;;37.23;24.20;;;;;;;3.44;80.41;101299.96;1744465;82;21242;-52
2022/12/31 01:20:30;;;;;;;38.10;23.83;;;;;;;3.48;80.42;101308.23;1744539;82;21395;-52
2022/12/31 01:23:37;;;;;;;36.53;24.70;;;;;;;3.50;80.37;101304.94;1744447;82;21209;-53
2022/12/31 01:26:43;;;;;;;39.90;23.80;;;;;;;3.49;80.33;101291.88;1744364;82;21283;-52
2022/12/31 01:29:49;;;;;;;37.17;23.07;;;;;;;3.44;80.29;101307.57;1744454;82;21247;-54
2022/12/31 01:32:55;;;;;;;42.23;24.90;;;;;;;3.37;80.28;101294.11;1744426;82;21278;-53
2022/12/31 01:36:00;;;;;;;41.60;25.77;;;;;;;3.32;80.37;101298.98;1744594;82;21272;-52
2022/12/31 01:39:07;;;;;;;42.93;25.08;;;;;;;3.31;80.33;101300.44;1744390;82;21203;-53
2022/12/31 01:42:12;;;;;;;41.18;26.15;;;;;;;3.28;80.33;101306.94;1744434;82;21240;-52
2022/12/31 01:45:19;;;;;;;41.40;24.65;;;;;;;3.27;80.41;101302.99;1744552;82;21252;-52
2022/12/31 01:48:30;;;;;;;38.73;24.72;;;;;;;3.27;80.47;101299.78;1744507;82;21196;-52
2022/12/31 01:51:38;;;;;;;39.53;26.75;;;;;;;3.28;80.46;101304.23;1723189;82;21204;-52
2022/12/31 01:54:48;;;;;;;43.87;26.17;;;;;;;3.33;80.52;101308.81;1744517;82;21200;-53
2022/12/31 01:57:56;;;;;;;39.08;25.95;;;;;;;3.35;80.55;101308.23;1744432;82;21287;-53
2022/12/31 02:01:03;;;;;;;47.45;25.55;;;;;;;3.41;80.58;101309.66;1737550;82;21769;-52
2022/12/31 02:04:14;;;;;;;42.33;24.92;;;;;;;3.48;80.65;101312.29;1699569;83;21284;-53
2022/12/31 02:07:21;;;;;;;41.02;25.60;;;;;;;3.56;80.76;101314.84;1731166;83;21212;-53
2022/12/31 02:10:28;;;;;;;45.80;27.62;;;;;;;3.66;80.84;101320.47;1731189;82;21201;-53
2022/12/31 02:13:35;;;;;;;43.92;26.42;;;;;;;3.71;80.79;101328.63;1731202;83;21233;-53
2022/12/31 02:17:36;;;;;;;41.02;25.52;;;;;;;3.78;80.82;101328.58;1731422;83;21268;-51
2022/12/31 02:21:28;;;;;;;40.80;24.52;;;;;;;3.81;80.75;101326.13;1731245;82;21785;-53
2022/12/31 02:24:54;;;;;;;40.03;25.27;;;;;;;3.87;80.71;101325.20;1731242;83;21209;-52
2022/12/31 02:28:20;;;;;;;44.55;26.70;;;;;;;3.89;80.66;101325.97;1731314;82;21217;-52
2022/12/31 02:31:31;;;;;;;41.05;25.57;;;;;;;3.90;80.62;101328.20;1713670;83;21225;-52
2022/12/31 02:35:00;;;;;;;41.20;25.72;;;;;;;3.85;80.49;101327.66;1731247;83;21193;-52
2022/12/31 02:38:20;;;;;;;39.80;24.92;;;;;;;3.71;80.48;101316.44;1731174;83;21225;-51
2022/12/31 02:44:50;;;;;;;43.78;26.87;;;;;;;3.49;80.48;101325.70;1731351;83;21209;-53
2022/12/31 02:48:31;;;;;;;42.23;25.88;;;;;;;3.38;80.42;101335.58;1731192;82;21228;-51
2022/12/31 02:51:58;;;;;;;41.40;26.05;;;;;;;3.26;80.40;101342.70;1731209;83;21272;-52
2022/12/31 02:55:16;;;;;;;42.67;25.55;;;;;;;3.16;80.44;101343.42;1709557;82;21260;-53
2022/12/31 03:02:13;;;;;;;44.45;25.95;;;;;;;2.95;80.53;101358.80;1735087;82;21259;-52
2022/12/31 03:05:21;;;;;;;42.85;26.10;;;;;;;2.84;80.55;101362.71;1744885;82;21189;-52
2022/12/31 03:09:11;;;;;;;44.18;27.82;;;;;;;2.76;80.57;101362.83;1744840;82;21212;-54
2022/12/31 03:15:05;;;;;;;42.78;27.02;;;;;;;2.63;80.59;101380.86;1744611;82;21231;-52
2022/12/31 03:22:26;;;;;;;44.42;26.97;;;;;;;2.57;80.56;101381.27;1744570;82;21283;-53
2022/12/31 03:28:20;;;;;;;41.53;25.72;;;;;;;2.40;80.55;101390.47;1744593;82;21208;-52
2022/12/31 03:31:26;;;;;;;42.43;26.23;;;;;;;2.34;80.54;101388.64;1744839;82;21264;-53
2022/12/31 03:34:31;;;;;;;40.55;24.98;;;;;;;2.29;80.51;101390.77;1744560;82;21305;-51
2022/12/31 03:37:38;;;;;;;88.90;48.90;;;;;;;2.23;80.50;101398.80;1744467;82;21367;-52
2022/12/31 03:40:53;;;;;;;47.88;28.05;;;;;;;2.17;80.56;101396.47;1744735;80;21252;-52
2022/12/31 03:44:00;;;;;;;40.75;26.00;;;;;;;2.12;80.54;101399.09;1744588;82;21201;-52
2022/12/31 03:47:05;;;;;;;43.42;26.33;;;;;;;2.07;80.53;101403.91;1744702;82;21208;-52
2022/12/31 03:50:13;;;;;;;44.60;27.05;;;;;;;2.03;80.54;101413.18;1744465;82;21205;-53
2022/12/31 03:53:12;;;;;;;47.08;26.85;;;;;;;1.99;80.59;101419.72;1744462;82;21295;-53
2022/12/31 03:56:18;;;;;;;47.43;27.45;;;;;;;1.94;80.58;101416.44;1744459;82;21251;-51
2022/12/31 03:59:23;;;;;;;44.93;27.02;;;;;;;1.92;80.63;101428.69;1744446;82;21236;-52
2022/12/31 04:02:31;;;;;;;46.98;28.17;;;;;;;1.92;80.68;101428.69;1742158;82;21224;-50
2022/12/31 04:05:37;;;;;;;49.18;28.85;;;;;;;1.96;80.74;101426.67;1730806;83;21224;-54
2022/12/31 04:08:44;;;;;;;45.65;28.60;;;;;;;2.02;80.82;101430.33;1730946;83;21233;-52
2022/12/31 04:11:53;;;;;;;50.40;29.70;;;;;;;2.10;80.79;101447.80;1730961;83;21228;-52
2022/12/31 04:14:59;;;;;;;53.08;30.00;;;;;;;2.18;80.78;101450.89;1730794;83;21221;-53
2022/12/31 04:18:06;;;;;;;50.88;28.67;;;;;;;2.26;80.79;101459.38;1730886;83;21201;-51
2022/12/31 04:21:12;;;;;;;48.25;30.10;;;;;;;2.32;80.70;101460.80;1730894;83;21608;-53
2022/12/31 04:24:18;;;;;;;51.88;31.15;;;;;;;2.37;80.67;101469.48;1730856;82;21213;-53
2022/12/31 04:27:23;;;;;;;52.67;30.57;;;;;;;2.39;80.62;101471.63;1730790;83;21264;-53
2022/12/31 04:30:30;;;;;;;59.10;32.85;;;;;;;2.41;80.69;101468.34;1730903;83;21260;-52
2022/12/31 04:33:36;;;;;;;55.85;34.25;;;;;;;2.50;80.81;101476.73;1730849;83;21201;-52
2022/12/31 04:36:42;;;;;;;61.60;33.25;;;;;;;2.53;80.72;101482.41;1730966;83;21216;-52
2022/12/31 04:39:47;;;;;;;63.92;34.00;;;;;;;2.55;80.76;101500.76;1708496;83;21201;-53
2022/12/31 04:42:57;;;;;;;59.13;33.55;;;;;;;2.57;80.76;101496.13;1730812;83;21288;-52
2022/12/31 04:46:04;;;;;;;54.75;31.95;;;;;;;2.59;80.72;101500.94;1730800;83;21210;-52
2022/12/31 04:49:09;;;;;;;56.18;31.62;;;;;;;2.59;80.69;101501.81;1730807;83;21170;-53
2022/12/31 04:52:14;;;;;;;62.35;33.25;;;;;;;2.59;80.66;101507.69;1730952;83;21220;-52
2022/12/31 04:55:21;;;;;;;65.40;32.78;;;;;;;2.60;80.73;101508.94;1730731;82;21201;-53
2022/12/31 04:58:27;;;;;;;62.08;33.33;;;;;;;2.62;80.78;101508.37;1730888;83;21209;-53
2022/12/31 05:01:35;;;;;;;66.00;30.20;;;;;;;2.66;80.80;101523.41;1730841;83;21201;-52
2022/12/31 05:04:43;;;;;;;67.97;30.75;;;;;;;2.65;80.76;101528.44;1731702;82;21280;-52
2022/12/31 05:07:49;;;;;;;61.45;28.40;;;;;;;2.64;80.74;101525.37;1736051;82;21192;-54
2022/12/31 05:10:55;;;;;;;57.35;27.75;;;;;;;2.65;80.75;101531.62;1736034;82;21272;-52
2022/12/31 05:14:01;;;;;;;54.70;27.10;;;;;;;2.63;80.65;101526.31;1735595;82;21252;-52
2022/12/31 05:17:09;;;;;;;57.23;26.12;;;;;;;2.60;80.64;101531.91;1736080;82;21229;-54
2022/12/31 05:20:16;;;;;;;75.72;28.02;;;;;;;2.57;80.62;101530.77;1736001;82;21308;-51
2022/12/31 05:23:24;;;;;;;69.65;28.25;;;;;;;2.59;80.72;101525.26;1735989;82;21221;-54
2022/12/31 05:26:31;;;;;;;58.30;24.98;;;;;;;2.62;80.87;101524.59;1736244;82;21260;-52
2022/12/31 05:29:38;;;;;;;54.80;23.42;;;;;;;2.64;80.80;101536.66;1736132;82;21185;-52
2022/12/31 05:32:44;;;;;;;60.90;23.15;;;;;;;2.62;80.73;101538.58;1736128;82;21213;-52
2022/12/31 05:35:50;;;;;;;56.70;22.80;;;;;;;2.60;80.71;101541.87;1736160;82;21237;-52
2022/12/31 05:38:56;;;;;;;44.00;23.07;;;;;;;2.53;80.69;101540.05;1736098;82;21221;-52
2022/12/31 05:42:02;;;;;;;54.33;22.70;;;;;;;2.55;80.81;101550.25;1736137;82;21359;-52
2022/12/31 05:45:12;;;;;;;47.43;22.80;;;;;;;2.62;80.91;101548.91;1729989;82;21185;-53
2022/12/31 05:48:16;;;;;;;56.35;23.10;;;;;;;2.66;80.89;101557.70;1669691;84;21277;-53
2022/12/31 05:51:22;;;;;;;47.58;22.77;;;;;;;2.72;81.00;101554.61;1705742;82;21244;-52
2022/12/31 05:54:29;;;;;;;43.90;21.80;;;;;;;2.80;81.11;101553.64;1705836;84;21276;-52
2022/12/31 05:57:35;;;;;;;48.08;21.75;;;;;;;2.88;81.16;101562.13;1705762;82;21782;-51
2022/12/31 06:00:42;;;;;;;35.15;18.32;;;;;;;2.94;81.18;101572.07;1705966;83;21737;-52
2022/12/31 06:03:48;;;;;;;36.85;20.37;;;;;;;3.00;81.13;101582.48;1682777;84;21825;-52
2022/12/31 06:06:55;;;;;;;42.50;20.12;;;;;;;2.99;81.08;101586.64;1685533;82;21879;-52
2022/12/31 06:10:01;;;;;;;39.30;19.50;;;;;;;3.03;81.12;101588.17;1688593;84;21219;-53
2022/12/31 06:13:06;;;;;;;40.38;19.50;;;;;;;3.08;81.19;101590.98;1688573;83;21254;-53
2022/12/31 06:16:15;;;;;;;34.13;18.98;;;;;;;3.14;81.16;101595.11;1688476;83;21236;-53
2022/12/31 06:19:21;;;;;;;33.00;17.17;;;;;;;3.19;81.08;101597.04;1688543;85;21749;-51
2022/12/31 06:22:28;;;;;;;43.40;20.48;;;;;;;3.19;81.08;101613.27;1691144;82;21768;-51
2022/12/31 06:25:35;;;;;;;36.88;20.05;;;;;;;3.21;80.99;101615.40;1688129;85;21283;-52
2022/12/31 06:28:41;;;;;;;37.13;20.25;;;;;;;3.24;80.98;101623.31;1719410;83;21187;-51
2022/12/31 06:31:50;;;;;;;36.00;18.35;;;;;;;3.27;81.01;101627.17;1712979;82;21294;-53
2022/12/31 06:34:57;;;;;;;38.02;19.85;;;;;;;3.31;81.03;101627.85;1692494;84;21256;-53
2022/12/31 06:38:03;;;;;;;41.00;22.02;;;;;;;3.38;81.13;101632.76;1712694;82;21255;-53
2022/12/31 06:41:13;;;;;;;35.78;20.10;;;;;;;3.44;81.08;101637.77;1749355;80;21197;-53
2022/12/31 06:44:21;;;;;;;38.70;18.98;;;;;;;3.49;80.99;101638.84;1749323;82;21161;-52
2022/12/31 06:47:26;;;;;;;34.60;18.23;;;;;;;3.51;80.88;101640.47;1749150;80;21362;-51
2022/12/31 06:50:34;;;;;;;29.10;16.52;;;;;;;3.44;80.67;101631.50;1749133;82;21231;-52
2022/12/31 06:53:39;;;;;;;30.60;17.25;;;;;;;3.46;80.80;101634.95;1748752;82;21235;-53
2022/12/31 06:56:46;;;;;;;31.42;17.55;;;;;;;3.49;80.85;101648.32;1739992;80;21215;-53
2022/12/31 06:59:52;;;;;;;37.67;18.92;;;;;;;3.55;80.89;101658.23;1746589;81;21220;-54
2022/12/31 07:03:22;;;;;;;54.42;20.62;;;;;;;3.66;80.96;101661.14;1730263;82;21244;-53
2022/12/31 07:06:39;;;;;;;38.85;19.17;;;;;;;3.75;81.03;101666.41;1723670;80;21205;-51
2022/12/31 07:10:08;;;;;;;38.53;19.15;;;;;;;3.85;81.04;101672.50;1708674;82;21617;-53
2022/12/31 07:13:31;;;;;;;32.80;18.35;;;;;;;3.91;80.99;101677.50;1707227;82;21264;-53
2022/12/31 07:17:03;;;;;;;36.03;18.00;;;;;;;3.94;80.96;101677.29;1706548;83;21193;-52
2022/12/31 07:20:21;;;;;;;34.85;17.67;;;;;;;3.95;80.90;101683.55;1736238;82;21208;-53
2022/12/31 07:23:30;;;;;;;33.92;17.80;;;;;;;3.92;80.83;101688.70;1701354;84;21718;-53
2022/12/31 07:27:14;;;;;;;36.50;19.90;;;;;;;3.93;80.89;101682.30;1706824;83;21229;-53
2022/12/31 07:30:31;;;;;;;34.63;18.23;;;;;;;3.97;80.92;101687.04;1720241;83;21204;-53
2022/12/31 07:33:58;;;;;;;31.62;17.15;;;;;;;4.05;80.95;101688.28;1734835;82;21216;-53
2022/12/31 07:37:18;;;;;;;28.25;17.20;;;;;;;4.11;80.98;101688.34;1706598;84;21185;-52
2022/12/31 07:40:50;;;;;;;34.00;18.32;;;;;;;4.10;80.81;101702.39;1735680;82;21247;-53
2022/12/31 07:44:14;;;;;;;34.13;18.77;;;;;;;4.14;80.83;101702.55;1741684;82;21204;-53
2022/12/31 07:47:27;;;;;;;38.55;21.25;;;;;;;4.20;80.80;101698.07;1742034;82;21270;-53
2022/12/31 07:50:35;;;;;;;34.10;18.60;;;;;;;4.26;80.81;101704.46;1742511;82;21373;-53
2022/12/31 07:53:40;;;;;;;33.83;18.37;;;;;;;4.29;80.81;101706.08;1742565;82;21172;-53
2022/12/31 07:56:46;;;;;;;29.42;17.02;;;;;;;4.30;80.78;101712.75;1721176;83;21281;-53
2022/12/31 08:00:15;;;;;;;31.52;16.45;;;;;;;4.29;80.69;101705.61;1720890;83;21264;-53
2022/12/31 08:03:29;;;;;;;29.52;15.65;;;;;;;4.27;80.59;101709.38;1720854;83;21197;-53
2022/12/31 08:06:57;;;;;;;;;;;;;;;4.28;80.63;101698.94;1723895;83;21333;-53
2022/12/31 08:10:21;;;;;;;26.62;14.35;;;;;;;4.32;80.60;101690.96;1687743;84;20217;-52
2022/12/31 08:13:28;;;;;;;31.15;16.57;;;;;;;4.30;80.59;101695.13;1690958;84;21604;-53
2022/12/31 08:16:36;;;;;;;30.17;17.23;;;;;;;4.36;80.69;101694.71;1711456;82;21809;-53
2022/12/31 08:19:45;;;;;;;28.98;16.87;;;;;;;4.42;80.74;101699.70;1716040;82;21208;-53
2022/12/31 08:23:18;;;;;;;33.23;18.57;;;;;;;4.43;80.58;101700.11;1712207;82;21232;-53
2022/12/31 08:26:28;;;;;;;29.85;17.25;;;;;;;4.41;80.53;101691.20;1712814;82;21232;-52
2022/12/31 08:29:50;;;;;;;29.18;16.20;;;;;;;4.43;80.56;101692.45;1714100;83;21175;-54
2022/12/31 08:33:20;;;;;;;31.55;17.55;;;;;;;4.44;80.53;101690.98;1720760;82;21211;-53
2022/12/31 08:36:54;;;;;;;29.80;16.70;;;;;;;4.47;80.56;101700.27;1743403;81;21227;-53
2022/12/31 08:40:32;;;;;;;40.03;21.45;;;;;;;4.48;80.51;101691.66;1651802;85;21756;-53
2022/12/31 08:43:58;;;;;;;35.92;19.90;;;;;;;4.51;80.49;101692.80;1638460;85;21257;-53
2022/12/31 08:47:25;;;;;;;32.98;20.00;;;;;;;4.56;80.59;101687.45;1701600;82;21240;-52
2022/12/31 08:50:34;;;;;;;37.70;17.27;;;;;;;4.63;80.66;101682.95;1724326;82;21180;-53
2022/12/31 08:53:41;;;;;;;34.55;20.92;;;;;;;4.67;80.59;101687.18;1743993;82;21168;-53
2022/12/31 08:57:22;;;;;;;35.00;20.02;;;;;;;4.70;80.57;101689.67;1720450;81;21251;-53
2022/12/31 09:00:30;;;;;;;28.38;16.60;;;;;;;4.73;80.51;101693.52;1743321;82;21182;-53
2022/12/31 09:04:19;;;;;;;31.82;17.10;;;;;;;4.70;80.38;101698.69;1739118;82;21212;-54
2022/12/31 09:07:24;;;;;;;34.43;17.85;;;;;;;4.67;80.35;101699.38;1744150;81;21735;-52
2022/12/31 09:10:43;;;;;;;30.75;17.12;;;;;;;4.67;80.42;101704.81;1716833;82;21236;-53
2022/12/31 09:14:05;;;;;;;28.35;16.77;;;;;;;4.68;80.47;101705.20;1716109;82;21350;-52
2022/12/31 09:17:50;;;;;;;34.50;18.57;;;;;;;4.61;80.29;101702.05;1700855;84;21244;-53
2022/12/31 09:20:58;;;;;;;31.20;18.42;;;;;;;4.56;80.31;101703.73;1701096;84;21434;-53
2022/12/31 09:24:02;;;;;;;32.53;18.37;;;;;;;4.60;80.42;101694.39;1683952;84;21205;-53
2022/12/31 09:27:36;;;;;;;31.55;16.40;;;;;;;4.66;80.46;101703.96;1700962;84;21288;-53
2022/12/31 09:31:10;;;;;;;34.63;18.35;;;;;;;4.66;80.34;101696.30;1701357;84;21612;-53
2022/12/31 09:34:22;;;;;;;37.58;20.15;;;;;;;4.55;80.22;101702.48;1673261;85;21301;-52
2022/12/31 09:37:55;;;;;;;32.17;16.40;;;;;;;4.50;80.28;101691.92;1642750;86;21258;-52
2022/12/31 09:41:22;;;;;;;36.53;18.62;;;;;;;4.53;80.39;101682.21;1731353;82;21204;-52
2022/12/31 09:44:48;;;;;;;39.35;21.25;;;;;;;4.63;80.50;101691.09;1740714;82;21726;-52
2022/12/31 09:48:19;;;;;;;33.40;18.25;;;;;;;4.69;80.51;101686.11;1716426;81;21263;-52
2022/12/31 09:51:37;;;;;;;36.83;20.80;;;;;;;4.70;80.37;101686.96;1680623;85;21244;-53
2022/12/31 09:55:11;;;;;;;65.28;38.55;;;;;;;4.67;80.31;101675.85;1710899;84;21280;-53
2022/12/31 09:58:45;;;;;;;46.40;27.07;;;;;;;4.67;80.25;101678.56;1717437;82;21227;-52
2022/12/31 10:02:33;;;;;;;36.98;21.25;;;;;;;4.68;80.27;101685.71;1732145;82;21872;-52
2022/12/31 10:06:14;;;;;;;33.95;20.85;;;;;;;4.67;80.23;101692.13;1731760;83;21276;-52
2022/12/31 10:09:33;;;;;;;33.33;17.85;;;;;;;4.70;80.23;101692.39;1734747;81;21252;-52
2022/12/31 10:13:26;;;;;;;30.17;16.42;;;;;;;4.60;80.15;101684.02;1748791;81;21201;-53
2022/12/31 10:17:03;;;;;;;31.70;17.53;;;;;;;4.55;80.20;101689.77;1746050;82;21251;-57
2022/12/31 10:20:32;;;;;;;44.60;25.62;;;;;;;4.48;80.21;101687.11;1746952;82;21265;-52
2022/12/31 10:24:29;;;;;;;39.18;20.37;;;;;;;4.46;80.22;101690.88;1688138;84;21196;-54
2022/12/31 10:28:12;;;;;;;35.35;19.42;;;;;;;4.40;80.25;101687.24;1703238;83;21275;-53
2022/12/31 10:31:53;;;;;;;29.67;17.95;;;;;;;4.38;80.31;101694.61;1703226;84;21237;-53
2022/12/31 10:35:30;;;;;;;31.02;17.70;;;;;;;4.35;80.40;101690.27;1676964;84;21758;-53
2022/12/31 10:38:55;;;;;;;28.60;16.73;;;;;;;4.36;80.39;101694.71;1702493;82;21292;-53
2022/12/31 10:42:16;;;;;;;29.77;16.17;;;;;;;4.37;80.50;101678.84;1702611;83;21216;-52
2022/12/31 10:45:46;;;;;;;35.88;16.90;;;;;;;4.36;80.48;101685.22;1701505;83;21201;-53
2022/12/31 10:49:17;;;;;;;26.55;15.50;;;;;;;4.36;80.47;101689.80;1702689;84;21200;-53
2022/12/31 10:52:31;;;;;;;30.50;17.42;;;;;;;4.30;80.43;101688.36;1693946;84;21200;-53
2022/12/31 10:56:05;;;;;;;27.77;15.85;;;;;;;4.30;80.57;101677.52;1702123;83;21260;-53
2022/12/31 10:59:37;;;;;;;36.00;17.17;;;;;;;4.38;80.62;101679.69;1702207;83;21204;-52
2022/12/31 11:02:50;;;;;;;32.25;17.98;;;;;;;4.45;80.67;101682.38;1683634;82;21228;-54
2022/12/31 11:06:34;;;;;;;28.00;15.70;;;;;;;4.44;80.59;101681.98;1673701;84;21821;-53
2022/12/31 11:10:17;;;;;;;27.82;14.18;;;;;;;4.46;80.67;101683.63;1673594;85;21248;-53
2022/12/31 11:14:13;;;;;;;32.15;15.88;;;;;;;4.48;80.66;101676.27;1738069;82;21203;-54
2022/12/31 11:17:42;;;;;;;23.83;14.23;;;;;;;4.49;80.66;101676.64;1742218;81;21223;-53
2022/12/31 11:21:25;;;;;;;29.42;15.30;;;;;;;4.49;80.59;101668.98;1742418;82;21175;-53
2022/12/31 11:25:10;;;;;;;29.52;15.65;;;;;;;4.56;80.67;101678.44;1743057;82;21175;-53
2022/12/31 11:28:41;;;;;;;25.65;15.38;;;;;;;4.62;80.63;101675.30;1743733;82;21192;-54
2022/12/31 11:32:01;;;;;;;28.73;16.75;;;;;;;4.63;80.56;101674.31;1741228;81;21200;-53
2022/12/31 11:35:31;;;;;;;32.78;17.62;;;;;;;4.65;80.54;101681.02;1712595;84;21770;-52
2022/12/31 11:38:46;;;;;;;22.02;14.07;;;;;;;4.66;80.47;101680.03;1743206;81;21763;-53
2022/12/31 11:42:00;;;;;;;26.97;15.32;;;;;;;4.61;80.32;101689.84;1727326;82;22024;-52
2022/12/31 11:45:50;;;;;;;30.48;17.85;;;;;;;4.52;80.33;101693.16;1742772;82;21234;-53
2022/12/31 11:49:41;;;;;;;31.05;17.75;;;;;;;4.52;80.38;101693.16;1740792;82;21227;-53
2022/12/31 11:53:16;;;;;;;31.23;16.70;;;;;;;4.50;80.35;101696.50;1710955;82;21224;-53
2022/12/31 11:56:27;;;;;;;34.98;19.35;;;;;;;4.56;80.45;101698.30;1741754;82;21218;-54
2022/12/31 11:59:36;;;;;;;32.85;19.32;;;;;;;4.61;80.53;101706.11;1739225;81;21204;-52
2022/12/31 12:02:43;;;;;;;39.75;19.45;;;;;;;4.60;80.53;101701.17;1711866;82;21271;-53
2022/12/31 12:05:50;;;;;;;27.73;16.65;;;;;;;4.61;80.56;101702.89;1741074;81;21168;-53
2022/12/31 12:08:55;;;;;;;26.65;15.00;;;;;;;4.63;80.51;101709.56;1712602;84;21256;-52
2022/12/31 12:12:08;;;;;;;24.98;15.25;;;;;;;4.63;80.49;101712.28;1729625;79;21264;-52
2022/12/31 12:15:16;;;;;;;32.48;15.53;;;;;;;4.57;80.48;101712.70;1708355;83;21208;-53
2022/12/31 12:18:39;;;;;;;28.67;15.20;;;;;;;4.52;80.46;101715.73;1708179;84;21777;-52
2022/12/31 12:21:52;;;;;;;24.98;15.35;;;;;;;4.48;80.46;101716.94;1706208;82;21229;-52
2022/12/31 12:25:12;;;;;;;32.40;16.37;;;;;;;4.49;80.61;101705.11;1677738;85;21270;-52
2022/12/31 12:28:27;;;;;;;31.37;18.32;;;;;;;4.51;80.65;101717.20;1677892;84;21264;-52
2022/12/31 12:31:34;;;;;;;27.07;15.03;;;;;;;4.47;80.62;101716.53;1711298;82;21244;-52
2022/12/31 12:34:44;;;;;;;29.82;16.75;;;;;;;4.45;80.58;101718.51;1683895;84;21208;-52
2022/12/31 12:37:52;;;;;;;31.48;17.40;;;;;;;4.46;80.72;101716.64;1682312;83;21284;-52
2022/12/31 12:41:08;;;;;;;34.63;19.70;;;;;;;4.50;80.75;101712.25;1682433;85;21244;-54
2022/12/31 12:44:17;;;;;;;31.15;17.05;;;;;;;4.54;80.72;101710.21;1706256;84;21209;-53
2022/12/31 12:47:23;;;;;;;39.98;23.42;;;;;;;4.57;80.71;101719.02;1655137;85;21722;-53
2022/12/31 12:50:32;;;;;;;35.48;18.50;;;;;;;4.59;80.72;101713.00;1667792;86;21572;-53
2022/12/31 12:53:52;;;;;;;31.73;16.97;;;;;;;4.61;80.74;101725.95;1673385;84;21240;-53
2022/12/31 12:57:15;;;;;;;29.63;17.67;;;;;;;4.54;80.67;101719.23;1684402;84;21430;-53
2022/12/31 13:01:00;;;;;;;33.15;17.77;;;;;;;4.49;80.64;101715.95;1684314;83;21256;-53
2022/12/31 13:04:33;;;;;;;37.85;20.15;;;;;;;4.48;80.73;101722.36;1684522;83;21200;-53
2022/12/31 13:08:01;;;;;;;44.05;23.15;;;;;;;4.47;80.74;101714.34;1656438;85;21245;-53
2022/12/31 13:11:14;;;;;;;46.68;20.37;;;;;;;4.49;80.87;101717.78;1655874;85;21217;-53
2022/12/31 13:14:40;;;;;;;33.50;18.92;;;;;;;4.52;80.87;101694.05;1660687;85;21785;-53
2022/12/31 13:18:09;;;;;;;38.98;17.70;;;;;;;4.47;80.50;101698.91;1662647;84;21832;-54
2022/12/31 13:21:49;;;;;;;30.60;16.20;;;;;;;4.45;80.50;101689.16;1660270;85;21248;-53
2022/12/31 13:25:14;;;;;;;29.35;15.08;;;;;;;4.45;80.59;101687.33;1663303;86;21280;-52
2022/12/31 13:28:20;;;;;;;33.33;16.67;;;;;;;4.45;80.67;101684.62;1661535;86;21998;-57
2022/12/31 13:31:36;;;;;;;35.63;17.62;;;;;;;4.45;80.75;101681.91;1687441;83;21317;-58
2022/12/31 13:34:48;;;;;;;33.55;18.75;;;;;;;4.45;80.78;101691.39;1688970;83;21280;-58
2022/12/31 13:37:54;;;;;;;42.90;20.40;;;;;;;4.45;80.77;101681.91;1688348;84;21567;-58
2022/12/31 13:41:29;;;;;;;43.00;18.95;;;;;;;4.46;80.85;101698.54;1694186;84;21241;-58
2022/12/31 13:44:54;;;;;;;34.95;16.95;;;;;;;4.49;80.83;101696.09;1691465;84;21277;-58
2022/12/31 13:48:07;;;;;;;39.15;17.27;;;;;;;4.47;80.82;101705.69;1694882;83;21225;-57
2022/12/31 13:51:23;;;;;;;39.60;16.20;;;;;;;4.43;80.72;101708.24;1660903;84;21217;-58
2022/12/31 13:55:00;;;;;;;40.80;16.50;;;;;;;4.38;80.51;101710.39;1660435;86;21259;-57
2022/12/31 13:58:15;;;;;;;42.40;19.10;;;;;;;4.31;80.45;101704.98;1660805;85;21249;-58
2022/12/31 14:01:33;;;;;;;44.90;20.25;;;;;;;4.32;80.55;101711.29;1660278;85;21205;-58
2022/12/31 14:04:45;;;;;;;52.38;19.48;;;;;;;4.31;80.64;101708.21;1660193;84;21257;-58
2022/12/31 14:08:01;;;;;;;53.30;19.80;;;;;;;4.33;80.76;101721.15;1662377;84;21240;-57
2022/12/31 14:11:36;;;;;;;32.88;18.37;;;;;;;4.30;80.72;101713.23;1661600;85;21276;-58
2022/12/31 14:14:53;;;;;;;53.87;24.27;;;;;;;4.30;80.76;101715.94;1693771;83;21375;-58
2022/12/31 14:18:35;;;;;;;66.00;19.23;;;;;;;4.31;80.82;101725.83;1712542;84;21784;-58
2022/12/31 14:22:00;;;;;;;40.75;17.15;;;;;;;4.34;80.77;101724.27;1712990;82;21228;-58
2022/12/31 14:25:05;;;;;;;58.13;17.87;;;;;;;4.25;80.58;101727.09;1693471;84;21224;-58
2022/12/31 14:28:12;;;;;;;49.30;17.67;;;;;;;4.24;80.69;101721.78;1704662;82;21263;-58
2022/12/31 14:31:26;;;;;;;63.87;15.60;;;;;;;4.17;80.46;101722.67;1648356;87;21800;-59
2022/12/31 14:34:50;;;;;;;38.98;14.00;;;;;;;4.09;80.41;101723.67;1676215;85;21252;-58
2022/12/31 14:38:07;;;;;;;44.27;14.28;;;;;;;4.06;80.46;101730.64;1660291;85;21228;-58
2022/12/31 14:41:53;;;;;;;47.88;15.95;;;;;;;4.03;80.48;101725.44;1678193;82;21805;-58
2022/12/31 14:45:39;;;;;;;50.70;16.30;;;;;;;3.99;80.48;101726.62;1697657;84;21293;-58
2022/12/31 14:49:24;;;;;;;40.73;14.50;;;;;;;3.96;80.45;101721.41;1702961;84;21197;-57
2022/12/31 14:52:33;;;;;;;34.80;13.25;;;;;;;3.88;80.38;101716.98;1675123;85;21316;-59
2022/12/31 14:55:44;;;;;;;35.63;13.93;;;;;;;3.86;80.51;101718.91;1632071;85;21243;-58
2022/12/31 14:58:54;;;;;;;52.62;15.75;;;;;;;3.87;80.59;101723.86;1648764;85;21793;-57
2022/12/31 15:01:59;;;;;;;43.45;16.70;;;;;;;3.86;80.59;101722.97;1686275;83;21232;-58
2022/12/31 15:05:20;;;;;;;35.20;16.30;;;;;;;3.85;80.58;101723.95;1675956;84;21209;-58
2022/12/31 15:09:01;;;;;;;43.48;16.90;;;;;;;3.89;80.74;101720.53;1673597;84;21825;-58
2022/12/31 15:12:17;;;;;;;47.38;17.10;;;;;;;3.88;80.66;101719.69;1695526;84;21220;-58
2022/12/31 15:15:52;;;;;;;49.58;18.92;;;;;;;3.88;80.56;101707.98;1701978;80;21243;-58
2022/12/31 15:19:03;;;;;;;47.23;19.17;;;;;;;3.80;80.40;101701.72;1739864;81;21204;-58
2022/12/31 15:22:48;;;;;;;37.98;16.73;;;;;;;3.72;80.32;101704.05;1711579;83;21217;-58
2022/12/31 15:25:58;;;;;;;33.13;16.73;;;;;;;3.67;80.37;101700.77;1711780;83;21239;-58